Cedarcreek, Missouri
Current Conditions -  °F | °C
As of 10:47 AM on Friday 28 Nov 2014 (Local Time) from KBBG Reporting Station
Few Clouds Few Clouds  
Wind Chill: 55°   Ceiling: Unl
Heat Index: 55°   Visibility: 10mi
Dew Point: 30°   Wind: 9mph
Humidity: 38%   Direction: 210°SSW
Pressure: 30.13"   Gusts: 17mph
Location:  36.58°N, 92.99°W
Report Text: KBBG 281647Z 21008G15KT 10SM FEW250 13/M01 A3013
Loading
Personal Weather Stations






























Interactive Weather Map New forecast layout! Learn more

10-Day Weather Forecast

Advertisements
Track Severe Weather on mobile